sensor_id;sensor_type;location;lat;lon;timestamp;pressure;altitude;pressure_sealevel;temperature;humidity
19447;BME280;9862;49.462;11.054;2023-06-22T00:01:12;98147.88;;;24.08;100.00
19447;BME280;9862;49.462;11.054;2023-06-22T00:03:38;98137.28;;;24.07;100.00
19447;BME280;9862;49.462;11.054;2023-06-22T00:06:06;98136.78;;;24.05;100.00
19447;BME280;9862;49.462;11.054;2023-06-22T00:08:33;98144.41;;;24.03;100.00
19447;BME280;9862;49.462;11.054;2023-06-22T00:10:59;98149.03;;;24.02;100.00
19447;BME280;9862;49.462;11.054;2023-06-22T00:13:26;98149.84;;;24.03;100.00
19447;BME280;9862;49.462;11.054;2023-06-22T00:15:52;98149.34;;;24.01;100.00
19447;BME280;9862;49.462;11.054;2023-06-22T00:18:19;98145.00;;;23.99;100.00
19447;BME280;9862;49.462;11.054;2023-06-22T00:20:46;98147.22;;;23.97;100.00
19447;BME280;9862;49.462;11.054;2023-06-22T00:23:14;98154.56;;;23.97;100.00
19447;BME280;9862;49.462;11.054;2023-06-22T00:25:41;98158.69;;;23.94;100.00
19447;BME280;9862;49.462;11.054;2023-06-22T00:28:07;98168.50;;;23.90;100.00
19447;BME280;9862;49.462;11.054;2023-06-22T00:30:34;98172.91;;;23.86;100.00
19447;BME280;9862;49.462;11.054;2023-06-22T00:33:01;98170.50;;;23.85;100.00
19447;BME280;9862;49.462;11.054;2023-06-22T00:35:28;98184.34;;;23.83;100.00
19447;BME280;9862;49.462;11.054;2023-06-22T00:37:55;98179.47;;;23.85;100.00
19447;BME280;9862;49.462;11.054;2023-06-22T00:40:27;98189.78;;;23.83;100.00
19447;BME280;9862;49.462;11.054;2023-06-22T00:42:54;98196.41;;;23.77;100.00
19447;BME280;9862;49.462;11.054;2023-06-22T00:45:21;98196.41;;;23.77;100.00
19447;BME280;9862;49.462;11.054;2023-06-22T00:47:49;98191.78;;;23.78;100.00
19447;BME280;9862;49.462;11.054;2023-06-22T00:50:19;98198.53;;;23.80;100.00
19447;BME280;9862;49.462;11.054;2023-06-22T00:52:48;98196.41;;;23.77;100.00
19447;BME280;9862;49.462;11.054;2023-06-22T00:55:17;98201.31;;;23.75;100.00
19447;BME280;9862;49.462;11.054;2023-06-22T00:57:46;98189.88;;;23.78;100.00
19447;BME280;9862;49.462;11.054;2023-06-22T01:00:14;98181.72;;;23.78;100.00
19447;BME280;9862;49.462;11.054;2023-06-22T01:02:46;98179.28;;;23.77;100.00
19447;BME280;9862;49.462;11.054;2023-06-22T01:05:17;98190.34;;;23.85;100.00
19447;BME280;9862;49.462;11.054;2023-06-22T01:07:54;98196.78;;;23.89;100.00
19447;BME280;9862;49.462;11.054;2023-06-22T01:10:28;98186.03;;;23.79;100.00
19447;BME280;9862;49.462;11.054;2023-06-22T01:13:01;98175.50;;;23.73;100.00
19447;BME280;9862;49.462;11.054;2023-06-22T01:15:30;98173.97;;;23.66;100.00
19447;BME280;9862;49.462;11.054;2023-06-22T01:17:58;98157.22;;;23.59;100.00
19447;BME280;9862;49.462;11.054;2023-06-22T01:20:26;98140.66;;;23.56;100.00
19447;BME280;9862;49.462;11.054;2023-06-22T01:23:07;98138.19;;;23.54;100.00
19447;BME280;9862;49.462;11.054;2023-06-22T01:25:43;98124.91;;;23.53;100.00
19447;BME280;9862;49.462;11.054;2023-06-22T01:28:22;98127.34;;;23.54;100.00
19447;BME280;9862;49.462;11.054;2023-06-22T01:30:52;98104.56;;;23.50;100.00
19447;BME280;9862;49.462;11.054;2023-06-22T01:33:29;98101.06;;;23.50;100.00
19447;BME280;9862;49.462;11.054;2023-06-22T01:35:58;98102.50;;;23.42;100.00
19447;BME280;9862;49.462;11.054;2023-06-22T01:38:26;98111.53;;;23.37;100.00
19447;BME280;9862;49.462;11.054;2023-06-22T01:40:54;98118.63;;;23.33;100.00
19447;BME280;9862;49.462;11.054;2023-06-22T01:43:22;98135.44;;;23.35;100.00
19447;BME280;9862;49.462;11.054;2023-06-22T01:45:52;98130.88;;;23.31;100.00
19447;BME280;9862;49.462;11.054;2023-06-22T01:48:19;98123.53;;;23.31;100.00
19447;BME280;9862;49.462;11.054;2023-06-22T01:50:46;98132.31;;;23.23;100.00
19447;BME280;9862;49.462;11.054;2023-06-22T01:53:13;98119.84;;;23.22;100.00
19447;BME280;9862;49.462;11.054;2023-06-22T01:55:40;98120.66;;;23.23;100.00
19447;BME280;9862;49.462;11.054;2023-06-22T01:58:06;98121.72;;;23.27;100.00
19447;BME280;9862;49.462;11.054;2023-06-22T02:00:37;98117.63;;;23.24;100.00
19447;BME280;9862;49.462;11.054;2023-06-22T02:03:10;98125.50;;;23.26;100.00
19447;BME280;9862;49.462;11.054;2023-06-22T02:05:44;98122.56;;;23.22;100.00
19447;BME280;9862;49.462;11.054;2023-06-22T02:08:16;98125.28;;;23.22;100.00
19447;BME280;9862;49.462;11.054;2023-06-22T02:10:45;98137.75;;;23.23;100.00
19447;BME280;9862;49.462;11.054;2023-06-22T02:13:15;98143.75;;;23.20;100.00
19447;BME280;9862;49.462;11.054;2023-06-22T02:15:44;98141.56;;;23.22;100.00
19447;BME280;9862;49.462;11.054;2023-06-22T02:18:15;98152.44;;;23.22;100.00
19447;BME280;9862;49.462;11.054;2023-06-22T02:20:43;98150.00;;;23.21;100.00
19447;BME280;9862;49.462;11.054;2023-06-22T02:23:11;98149.78;;;23.17;100.00
19447;BME280;9862;49.462;11.054;2023-06-22T02:25:38;98138.09;;;23.17;100.00
19447;BME280;9862;49.462;11.054;2023-06-22T02:28:05;98148.59;;;23.23;100.00
19447;BME280;9862;49.462;11.054;2023-06-22T02:30:32;98150.91;;;23.11;100.00
19447;BME280;9862;49.462;11.054;2023-06-22T02:32:59;98139.56;;;23.04;100.00
19447;BME280;9862;49.462;11.054;2023-06-22T02:35:28;98141.28;;;22.95;100.00
19447;BME280;9862;49.462;11.054;2023-06-22T02:37:56;98138.63;;;22.90;100.00
19447;BME280;9862;49.462;11.054;2023-06-22T02:40:23;98160.06;;;22.91;100.00
19447;BME280;9862;49.462;11.054;2023-06-22T02:42:49;98174.13;;;22.98;100.00
19447;BME280;9862;49.462;11.054;2023-06-22T02:45:16;98200.22;;;23.23;100.00
19447;BME280;9862;49.462;11.054;2023-06-22T02:47:43;98229.75;;;23.01;100.00
19447;BME280;9862;49.462;11.054;2023-06-22T02:50:13;98255.94;;;22.76;100.00
19447;BME280;9862;49.462;11.054;2023-06-22T02:52:43;98269.56;;;22.22;100.00
19447;BME280;9862;49.462;11.054;2023-06-22T02:55:09;98277.84;;;21.66;100.00
19447;BME280;9862;49.462;11.054;2023-06-22T02:57:36;98273.81;;;21.38;100.00
19447;BME280;9862;49.462;11.054;2023-06-22T03:00:03;98267.31;;;21.19;100.00
19447;BME280;9862;49.462;11.054;2023-06-22T03:02:42;98272.72;;;21.19;100.00
19447;BME280;9862;49.462;11.054;2023-06-22T03:05:08;98270.28;;;21.17;100.00
19447;BME280;9862;49.462;11.054;2023-06-22T03:07:38;98270.84;;;21.24;100.00
19447;BME280;9862;49.462;11.054;2023-06-22T03:10:07;98270.56;;;21.31;100.00
19447;BME280;9862;49.462;11.054;2023-06-22T03:12:35;98261.63;;;21.30;100.00
19447;BME280;9862;49.462;11.054;2023-06-22T03:15:01;98257.84;;;21.36;100.00
19447;BME280;9862;49.462;11.054;2023-06-22T03:17:28;98245.66;;;21.39;100.00
19447;BME280;9862;49.462;11.054;2023-06-22T03:19:55;98246.47;;;21.39;100.00
19447;BME280;9862;49.462;11.054;2023-06-22T03:22:21;98260.53;;;21.62;100.00
19447;BME280;9862;49.462;11.054;2023-06-22T03:24:48;98248.00;;;21.71;100.00
19447;BME280;9862;49.462;11.054;2023-06-22T03:27:16;98237.75;;;21.68;100.00
19447;BME280;9862;49.462;11.054;2023-06-22T03:29:43;98242.34;;;21.73;100.00
19447;BME280;9862;49.462;11.054;2023-06-22T03:32:10;98229.28;;;21.80;100.00
19447;BME280;9862;49.462;11.054;2023-06-22T03:34:36;98220.06;;;21.91;100.00
19447;BME280;9862;49.462;11.054;2023-06-22T03:37:03;98217.03;;;22.03;100.00
19447;BME280;9862;49.462;11.054;2023-06-22T03:39:31;98219.44;;;22.09;100.00
19447;BME280;9862;49.462;11.054;2023-06-22T03:41:58;98207.78;;;22.14;100.00
19447;BME280;9862;49.462;11.054;2023-06-22T03:44:26;98208.56;;;22.19;100.00
19447;BME280;9862;49.462;11.054;2023-06-22T03:46:52;98219.38;;;22.24;100.00
19447;BME280;9862;49.462;11.054;2023-06-22T03:49:19;98216.09;;;22.27;100.00
19447;BME280;9862;49.462;11.054;2023-06-22T03:51:45;98200.38;;;22.30;100.00
19447;BME280;9862;49.462;11.054;2023-06-22T03:54:12;98203.63;;;22.32;100.00
19447;BME280;9862;49.462;11.054;2023-06-22T03:56:38;98188.41;;;22.36;100.00
19447;BME280;9862;49.462;11.054;2023-06-22T03:59:05;98178.13;;;22.33;100.00
19447;BME280;9862;49.462;11.054;2023-06-22T04:01:33;98176.75;;;22.35;100.00
19447;BME280;9862;49.462;11.054;2023-06-22T04:03:59;98182.97;;;22.36;100.00
19447;BME280;9862;49.462;11.054;2023-06-22T04:06:26;98183.78;;;22.36;100.00
19447;BME280;9862;49.462;11.054;2023-06-22T04:08:52;98176.97;;;22.39;100.00
19447;BME280;9862;49.462;11.054;2023-06-22T04:11:19;98163.72;;;22.37;100.00
19447;BME280;9862;49.462;11.054;2023-06-22T04:13:46;98160.72;;;22.39;100.00
19447;BME280;9862;49.462;11.054;2023-06-22T04:16:14;98149.81;;;22.49;100.00
19447;BME280;9862;49.462;11.054;2023-06-22T04:18:42;98167.44;;;22.46;100.00
19447;BME280;9862;49.462;11.054;2023-06-22T04:21:10;98165.00;;;22.45;100.00
19447;BME280;9862;49.462;11.054;2023-06-22T04:23:36;98146.56;;;22.47;100.00
19447;BME280;9862;49.462;11.054;2023-06-22T04:26:03;98135.69;;;22.47;100.00
19447;BME280;9862;49.462;11.054;2023-06-22T04:28:29;98143.00;;;22.51;100.00
19447;BME280;9862;49.462;11.054;2023-06-22T04:31:00;98156.50;;;22.56;100.00
19447;BME280;9862;49.462;11.054;2023-06-22T04:33:27;98141.84;;;22.57;100.00
19447;BME280;9862;49.462;11.054;2023-06-22T04:35:56;98131.78;;;22.63;100.00
19447;BME280;9862;49.462;11.054;2023-06-22T04:38:23;98115.72;;;22.67;100.00
19447;BME280;9862;49.462;11.054;2023-06-22T04:40:50;98111.88;;;22.73;100.00
19447;BME280;9862;49.462;11.054;2023-06-22T04:43:18;98116.44;;;22.77;100.00
19447;BME280;9862;49.462;11.054;2023-06-22T04:45:45;98119.94;;;22.83;100.00
19447;BME280;9862;49.462;11.054;2023-06-22T04:48:11;98116.66;;;22.86;100.00
19447;BME280;9862;49.462;11.054;2023-06-22T04:50:41;98111.44;;;22.95;100.00
19447;BME280;9862;49.462;11.054;2023-06-22T04:53:09;98103.28;;;22.95;100.00
19447;BME280;9862;49.462;11.054;2023-06-22T04:55:38;98089.59;;;23.05;100.00
19447;BME280;9862;49.462;11.054;2023-06-22T04:58:07;98098.94;;;22.99;100.00
19447;BME280;9862;49.462;11.054;2023-06-22T05:00:33;98100.28;;;22.96;100.00
19447;BME280;9862;49.462;11.054;2023-06-22T05:03:01;98111.94;;;22.97;100.00
19447;BME280;9862;49.462;11.054;2023-06-22T05:05:28;98109.72;;;23.04;100.00
19447;BME280;9862;49.462;11.054;2023-06-22T05:07:56;98099.38;;;23.06;100.00
19447;BME280;9862;49.462;11.054;2023-06-22T05:10:27;98098.81;;;23.09;100.00
19447;BME280;9862;49.462;11.054;2023-06-22T05:12:53;98092.56;;;23.08;100.00
19447;BME280;9862;49.462;11.054;2023-06-22T05:15:20;98105.53;;;23.17;100.00
19447;BME280;9862;49.462;11.054;2023-06-22T05:17:48;98112.84;;;23.16;100.00
19447;BME280;9862;49.462;11.054;2023-06-22T05:20:15;98106.25;;;23.22;100.00
19447;BME280;9862;49.462;11.054;2023-06-22T05:22:43;98098.13;;;23.22;100.00
19447;BME280;9862;49.462;11.054;2023-06-22T05:25:11;98099.22;;;23.21;100.00
19447;BME280;9862;49.462;11.054;2023-06-22T05:27:39;98105.63;;;23.30;100.00
19447;BME280;9862;49.462;11.054;2023-06-22T05:30:06;98107.19;;;23.36;100.00
19447;BME280;9862;49.462;11.054;2023-06-22T05:32:33;98102.91;;;23.30;100.00
19447;BME280;9862;49.462;11.054;2023-06-22T05:35:00;98099.31;;;23.35;100.00
19447;BME280;9862;49.462;11.054;2023-06-22T05:37:27;98087.31;;;23.41;100.00
19447;BME280;9862;49.462;11.054;2023-06-22T05:39:54;98102.97;;;23.49;100.00
19447;BME280;9862;49.462;11.054;2023-06-22T05:42:22;98098.94;;;23.47;100.00
19447;BME280;9862;49.462;11.054;2023-06-22T05:44:52;98093.94;;;23.54;100.00
19447;BME280;9862;49.462;11.054;2023-06-22T05:47:18;98092.22;;;23.63;100.00
19447;BME280;9862;49.462;11.054;2023-06-22T05:49:45;98093.81;;;23.64;100.00
19447;BME280;9862;49.462;11.054;2023-06-22T05:52:11;98091.66;;;23.66;100.00
19447;BME280;9862;49.462;11.054;2023-06-22T05:54:38;98086.63;;;23.73;100.00
19447;BME280;9862;49.462;11.054;2023-06-22T05:57:07;98075.63;;;23.83;100.00
19447;BME280;9862;49.462;11.054;2023-06-22T05:59:33;98079.91;;;23.89;100.00
19447;BME280;9862;49.462;11.054;2023-06-22T06:02:01;98083.13;;;23.91;100.00
19447;BME280;9862;49.462;11.054;2023-06-22T06:04:28;98085.47;;;23.98;100.00
19447;BME280;9862;49.462;11.054;2023-06-22T06:06:55;98077.38;;;24.12;100.00
19447;BME280;9862;49.462;11.054;2023-06-22T06:09:21;98076.50;;;24.16;100.00
19447;BME280;9862;49.462;11.054;2023-06-22T06:11:48;98084.16;;;24.14;100.00
19447;BME280;9862;49.462;11.054;2023-06-22T06:14:15;98071.88;;;24.17;100.00
19447;BME280;9862;49.462;11.054;2023-06-22T06:16:45;98079.44;;;24.20;100.00
19447;BME280;9862;49.462;11.054;2023-06-22T06:19:13;98075.25;;;24.27;100.00
19447;BME280;9862;49.462;11.054;2023-06-22T06:21:40;98073.28;;;24.33;100.00
19447;BME280;9862;49.462;11.054;2023-06-22T06:24:06;98071.56;;;24.37;100.00
19447;BME280;9862;49.462;11.054;2023-06-22T06:26:33;98066.13;;;24.37;100.00
19447;BME280;9862;49.462;11.054;2023-06-22T06:29:01;98063.34;;;24.42;100.00
19447;BME280;9862;49.462;11.054;2023-06-22T06:31:29;98056.63;;;24.53;100.00
19447;BME280;9862;49.462;11.054;2023-06-22T06:33:55;98057.03;;;24.61;100.00
19447;BME280;9862;49.462;11.054;2023-06-22T06:36:24;98051.19;;;24.67;100.00
19447;BME280;9862;49.462;11.054;2023-06-22T06:38:50;98062.09;;;24.67;100.00
19447;BME280;9862;49.462;11.054;2023-06-22T06:41:17;98058.69;;;24.75;100.00
19447;BME280;9862;49.462;11.054;2023-06-22T06:43:44;98052.63;;;24.78;100.00
19447;BME280;9862;49.462;11.054;2023-06-22T06:46:11;98050.63;;;24.84;100.00
19447;BME280;9862;49.462;11.054;2023-06-22T06:48:37;98050.94;;;24.96;100.00
19447;BME280;9862;49.462;11.054;2023-06-22T06:51:05;98043.78;;;25.00;100.00
19447;BME280;9862;49.462;11.054;2023-06-22T06:53:35;98042.00;;;25.09;100.00
19447;BME280;9862;49.462;11.054;2023-06-22T06:56:02;98036.56;;;25.09;100.00
19447;BME280;9862;49.462;11.054;2023-06-22T06:58:30;98037.94;;;25.07;100.00
19447;BME280;9862;49.462;11.054;2023-06-22T07:00:57;98029.38;;;25.14;100.00
19447;BME280;9862;49.462;11.054;2023-06-22T07:03:23;98028.19;;;25.20;100.00
19447;BME280;9862;49.462;11.054;2023-06-22T07:05:50;98022.19;;;25.18;100.00
19447;BME280;9862;49.462;11.054;2023-06-22T07:08:17;98021.00;;;25.24;100.00
19447;BME280;9862;49.462;11.054;2023-06-22T07:10:45;98018.69;;;25.31;100.00
19447;BME280;9862;49.462;11.054;2023-06-22T07:13:11;98026.22;;;25.34;100.00
19447;BME280;9862;49.462;11.054;2023-06-22T07:15:38;98021.19;;;25.41;100.00
19447;BME280;9862;49.462;11.054;2023-06-22T07:18:05;98019.66;;;25.49;100.00
19447;BME280;9862;49.462;11.054;2023-06-22T07:20:32;98024.38;;;25.57;100.00
19447;BME280;9862;49.462;11.054;2023-06-22T07:22:58;98027.81;;;25.62;100.00
19447;BME280;9862;49.462;11.054;2023-06-22T07:25:25;98019.22;;;25.69;100.00
19447;BME280;9862;49.462;11.054;2023-06-22T07:28:01;98013.88;;;25.78;100.00
19447;BME280;9862;49.462;11.054;2023-06-22T07:30:28;98016.59;;;25.78;100.00
19447;BME280;9862;49.462;11.054;2023-06-22T07:32:57;98015.47;;;25.79;100.00
19447;BME280;9862;49.462;11.054;2023-06-22T07:35:24;98006.34;;;25.83;100.00
19447;BME280;9862;49.462;11.054;2023-06-22T07:37:50;98008.19;;;25.88;100.00
19447;BME280;9862;49.462;11.054;2023-06-22T07:40:17;98003.44;;;26.02;100.00
19447;BME280;9862;49.462;11.054;2023-06-22T07:42:44;98005.44;;;26.10;100.00
19447;BME280;9862;49.462;11.054;2023-06-22T07:45:14;98000.00;;;26.10;100.00
19447;BME280;9862;49.462;11.054;2023-06-22T07:47:41;98004.81;;;26.13;100.00
19447;BME280;9862;49.462;11.054;2023-06-22T07:50:09;98011.75;;;26.19;100.00
19447;BME280;9862;49.462;11.054;2023-06-22T07:52:36;98007.97;;;26.29;100.00
19447;BME280;9862;49.462;11.054;2023-06-22T07:55:03;98003.31;;;26.30;100.00
19447;BME280;9862;49.462;11.054;2023-06-22T07:57:30;97993.69;;;26.32;100.00
19447;BME280;9862;49.462;11.054;2023-06-22T07:59:59;97993.78;;;26.41;100.00
19447;BME280;9862;49.462;11.054;2023-06-22T08:02:27;97995.13;;;26.52;100.00
19447;BME280;9862;49.462;11.054;2023-06-22T08:04:53;97983.94;;;26.62;100.00
19447;BME280;9862;49.462;11.054;2023-06-22T08:07:20;97990.38;;;26.66;100.00
19447;BME280;9862;49.462;11.054;2023-06-22T08:09:47;97996.22;;;26.82;100.00
19447;BME280;9862;49.462;11.054;2023-06-22T08:12:15;97994.19;;;26.96;100.00
19447;BME280;9862;49.462;11.054;2023-06-22T08:14:42;97989.22;;;26.98;100.00
19447;BME280;9862;49.462;11.054;2023-06-22T08:17:08;97996.34;;;27.08;100.00
19447;BME280;9862;49.462;11.054;2023-06-22T08:19:38;97992.50;;;27.09;100.00
19447;BME280;9862;49.462;11.054;2023-06-22T08:22:05;97997.97;;;27.09;100.00
19447;BME280;9862;49.462;11.054;2023-06-22T08:24:32;97992.81;;;27.07;100.00
19447;BME280;9862;49.462;11.054;2023-06-22T08:26:59;97986.06;;;27.05;100.00
19447;BME280;9862;49.462;11.054;2023-06-22T08:29:25;97982.72;;;27.25;100.00
19447;BME280;9862;49.462;11.054;2023-06-22T08:31:52;97985.63;;;27.29;100.00
19447;BME280;9862;49.462;11.054;2023-06-22T08:34:19;97983.38;;;27.31;100.00
19447;BME280;9862;49.462;11.054;2023-06-22T08:36:51;97982.41;;;27.27;100.00
19447;BME280;9862;49.462;11.054;2023-06-22T08:39:18;97983.91;;;27.42;100.00
19447;BME280;9862;49.462;11.054;2023-06-22T08:41:45;97991.78;;;27.52;100.00
19447;BME280;9862;49.462;11.054;2023-06-22T08:44:12;97992.91;;;27.51;100.00
19447;BME280;9862;49.462;11.054;2023-06-22T08:46:38;97996.28;;;27.48;100.00
19447;BME280;9862;49.462;11.054;2023-06-22T08:49:06;97994.66;;;27.47;100.00
19447;BME280;9862;49.462;11.054;2023-06-22T08:51:33;97985.19;;;27.53;100.00
19447;BME280;9862;49.462;11.054;2023-06-22T08:54:01;97978.63;;;27.71;100.00
19447;BME280;9862;49.462;11.054;2023-06-22T08:56:27;97985.69;;;27.63;100.00
19447;BME280;9862;49.462;11.054;2023-06-22T08:58:54;97980.88;;;27.69;100.00
19447;BME280;9862;49.462;11.054;2023-06-22T09:01:21;97976.53;;;27.68;100.00
19447;BME280;9862;49.462;11.054;2023-06-22T09:03:48;97978.13;;;27.69;100.00
19447;BME280;9862;49.462;11.054;2023-06-22T09:06:20;97979.75;;;27.79;100.00
19447;BME280;9862;49.462;11.054;2023-06-22T09:08:47;97973.31;;;27.83;100.00
19447;BME280;9862;49.462;11.054;2023-06-22T09:11:15;97962.03;;;27.93;100.00
19447;BME280;9862;49.462;11.054;2023-06-22T09:13:42;97963.66;;;27.94;100.00
19447;BME280;9862;49.462;11.054;2023-06-22T09:16:09;97955.75;;;28.02;100.00
19447;BME280;9862;49.462;11.054;2023-06-22T09:18:37;97951.72;;;28.08;100.00
19447;BME280;9862;49.462;11.054;2023-06-22T09:21:03;97939.34;;;28.10;100.00
19447;BME280;9862;49.462;11.054;2023-06-22T09:23:30;97935.44;;;28.20;100.00
19447;BME280;9862;49.462;11.054;2023-06-22T09:25:57;97931.25;;;28.31;100.00
19447;BME280;9862;49.462;11.054;2023-06-22T09:28:25;97922.00;;;28.44;100.00
19447;BME280;9862;49.462;11.054;2023-06-22T09:30:52;97911.50;;;28.55;100.00
19447;BME280;9862;49.462;11.054;2023-06-22T09:33:24;97913.06;;;28.65;100.00
19447;BME280;9862;49.462;11.054;2023-06-22T09:35:51;97908.34;;;28.74;100.00
19447;BME280;9862;49.462;11.054;2023-06-22T09:38:18;97905.16;;;28.72;100.00
19447;BME280;9862;49.462;11.054;2023-06-22T09:40:44;97909.31;;;28.78;100.00
19447;BME280;9862;49.462;11.054;2023-06-22T09:43:11;97896.88;;;28.80;100.00
19447;BME280;9862;49.462;11.054;2023-06-22T09:45:39;97902.81;;;28.83;100.00
19447;BME280;9862;49.462;11.054;2023-06-22T09:48:06;97900.06;;;28.91;100.00
19447;BME280;9862;49.462;11.054;2023-06-22T09:50:32;97892.66;;;28.92;100.00
19447;BME280;9862;49.462;11.054;2023-06-22T09:52:59;97884.28;;;28.88;100.00
19447;BME280;9862;49.462;11.054;2023-06-22T09:55:25;97885.00;;;29.06;100.00
19447;BME280;9862;49.462;11.054;2023-06-22T09:57:52;97884.59;;;29.16;100.00
19447;BME280;9862;49.462;11.054;2023-06-22T10:00:20;97883.25;;;29.22;100.00
19447;BME280;9862;49.462;11.054;2023-06-22T10:02:48;97881.78;;;29.25;100.00
19447;BME280;9862;49.462;11.054;2023-06-22T10:05:16;97877.69;;;29.31;100.00
19447;BME280;9862;49.462;11.054;2023-06-22T10:07:42;97879.09;;;29.37;100.00
19447;BME280;9862;49.462;11.054;2023-06-22T10:10:09;97871.16;;;29.44;100.00
19447;BME280;9862;49.462;11.054;2023-06-22T10:12:36;97872.16;;;29.40;100.00
19447;BME280;9862;49.462;11.054;2023-06-22T10:15:03;97872.22;;;29.31;100.00
19447;BME280;9862;49.462;11.054;2023-06-22T10:17:30;97878.44;;;29.40;100.00
19447;BME280;9862;49.462;11.054;2023-06-22T10:19:58;97878.25;;;29.45;100.00
19447;BME280;9862;49.462;11.054;2023-06-22T10:22:26;97882.38;;;29.51;100.00
19447;BME280;9862;49.462;11.054;2023-06-22T10:24:52;97886.94;;;29.47;100.00
19447;BME280;9862;49.462;11.054;2023-06-22T10:27:19;97887.72;;;29.69;100.00
19447;BME280;9862;49.462;11.054;2023-06-22T10:29:45;97890.69;;;29.63;100.00
19447;BME280;9862;49.462;11.054;2023-06-22T10:32:12;97889.06;;;29.62;100.00
19447;BME280;9862;49.462;11.054;2023-06-22T10:34:39;97898.78;;;29.60;100.00
19447;BME280;9862;49.462;11.054;2023-06-22T10:37:07;97900.72;;;29.59;100.00
19447;BME280;9862;49.462;11.054;2023-06-22T10:39:33;97904.59;;;29.58;100.00
19447;BME280;9862;49.462;11.054;2023-06-22T10:42:00;97901.75;;;29.55;100.00
19447;BME280;9862;49.462;11.054;2023-06-22T10:44:26;97907.81;;;29.60;100.00
19447;BME280;9862;49.462;11.054;2023-06-22T10:46:53;97909.16;;;29.54;100.00
19447;BME280;9862;49.462;11.054;2023-06-22T10:49:20;97911.41;;;29.52;100.00
19447;BME280;9862;49.462;11.054;2023-06-22T10:51:46;97913.97;;;29.57;100.00
19447;BME280;9862;49.462;11.054;2023-06-22T10:54:14;97906.00;;;29.64;100.00
19447;BME280;9862;49.462;11.054;2023-06-22T10:56:43;97894.81;;;29.70;100.00
19447;BME280;9862;49.462;11.054;2023-06-22T10:59:10;97891.66;;;29.80;100.00
19447;BME280;9862;49.462;11.054;2023-06-22T11:01:36;97895.56;;;29.91;100.00
19447;BME280;9862;49.462;11.054;2023-06-22T11:04:03;97886.69;;;29.94;100.00
19447;BME280;9862;49.462;11.054;2023-06-22T11:06:30;97884.03;;;29.98;100.00
19447;BME280;9862;49.462;11.054;2023-06-22T11:08:56;97871.66;;;30.12;100.00
19447;BME280;9862;49.462;11.054;2023-06-22T11:11:25;97864.78;;;30.18;100.00
19447;BME280;9862;49.462;11.054;2023-06-22T11:13:52;97867.06;;;30.16;100.00
19447;BME280;9862;49.462;11.054;2023-06-22T11:16:19;97862.28;;;30.26;100.00
19447;BME280;9862;49.462;11.054;2023-06-22T11:18:45;97852.09;;;30.26;100.00
19447;BME280;9862;49.462;11.054;2023-06-22T11:21:12;97860.00;;;30.40;100.00
19447;BME280;9862;49.462;11.054;2023-06-22T11:23:38;97848.78;;;30.45;100.00
19447;BME280;9862;49.462;11.054;2023-06-22T11:26:05;97843.97;;;30.54;100.00
19447;BME280;9862;49.462;11.054;2023-06-22T11:28:33;97843.41;;;30.48;100.00
19447;BME280;9862;49.462;11.054;2023-06-22T11:30:59;97846.59;;;30.38;100.00
19447;BME280;9862;49.462;11.054;2023-06-22T11:33:27;97841.47;;;30.37;100.00
19447;BME280;9862;49.462;11.054;2023-06-22T11:35:53;97846.75;;;30.42;100.00
19447;BME280;9862;49.462;11.054;2023-06-22T11:38:21;97835.97;;;30.49;100.00
19447;BME280;9862;49.462;11.054;2023-06-22T11:40:48;97833.22;;;30.61;100.00
19447;BME280;9862;49.462;11.054;2023-06-22T11:43:15;97829.56;;;30.57;100.00
19447;BME280;9862;49.462;11.054;2023-06-22T11:45:43;97826.72;;;30.66;100.00
19447;BME280;9862;49.462;11.054;2023-06-22T11:48:09;97826.16;;;30.72;100.00
19447;BME280;9862;49.462;11.054;2023-06-22T11:50:36;97809.88;;;30.67;100.00
19447;BME280;9862;49.462;11.054;2023-06-22T11:53:03;97802.56;;;30.71;100.00
19447;BME280;9862;49.462;11.054;2023-06-22T11:55:29;97799.56;;;30.76;100.00
19447;BME280;9862;49.462;11.054;2023-06-22T11:57:57;97795.31;;;30.91;100.00
19447;BME280;9862;49.462;11.054;2023-06-22T12:00:27;97789.25;;;30.86;100.00
19447;BME280;9862;49.462;11.054;2023-06-22T12:02:55;97786.50;;;30.86;100.00
19447;BME280;9862;49.462;11.054;2023-06-22T12:05:22;97790.28;;;30.81;100.00
19447;BME280;9862;49.462;11.054;2023-06-22T12:07:50;97790.38;;;30.85;100.00
19447;BME280;9862;49.462;11.054;2023-06-22T12:10:19;97785.56;;;30.94;100.00
19447;BME280;9862;49.462;11.054;2023-06-22T12:12:46;97781.31;;;30.96;100.00
19447;BME280;9862;49.462;11.054;2023-06-22T12:15:13;97781.59;;;31.07;100.00
19447;BME280;9862;49.462;11.054;2023-06-22T12:17:40;97773.13;;;31.12;100.00
19447;BME280;9862;49.462;11.054;2023-06-22T12:20:09;97756.16;;;31.22;100.00
19447;BME280;9862;49.462;11.054;2023-06-22T12:22:35;97756.34;;;31.29;100.00
19447;BME280;9862;49.462;11.054;2023-06-22T12:25:03;97741.00;;;31.28;100.00
19447;BME280;9862;49.462;11.054;2023-06-22T12:27:30;97741.66;;;31.38;100.00
19447;BME280;9862;49.462;11.054;2023-06-22T12:29:56;97733.31;;;31.50;100.00
19447;BME280;9862;49.462;11.054;2023-06-22T12:32:23;97722.41;;;31.53;100.00
19447;BME280;9862;49.462;11.054;2023-06-22T12:34:50;97727.72;;;31.62;100.00
19447;BME280;9862;49.462;11.054;2023-06-22T12:37:18;97717.09;;;31.60;100.00
19447;BME280;9862;49.462;11.054;2023-06-22T12:39:45;97709.53;;;31.73;100.00
19447;BME280;9862;49.462;11.054;2023-06-22T12:42:12;97713.59;;;31.76;100.00
19447;BME280;9862;49.462;11.054;2023-06-22T12:44:38;97715.97;;;31.77;100.00
19447;BME280;9862;49.462;11.054;2023-06-22T12:47:06;97709.75;;;31.80;100.00
19447;BME280;9862;49.462;11.054;2023-06-22T12:49:33;97711.25;;;31.94;100.00
19447;BME280;9862;49.462;11.054;2023-06-22T12:52:00;97716.50;;;31.99;100.00